Time;durP1;ratioP1;P1;durP2;ratioP2;P2;SDS_P1;SDS_P2;PMS_P1;PMS_P2;Temp;Humidity;BMP_temperature;BMP_pressure;BME280_temperature;BME280_humidity;BME280_pressure;Samples;Min_cycle;Max_cycle;Signal;HPM_P1;HPM_P2
2023/06/16 18:57:59;;;;;;;;;;;;;;;24.05;37.64;101588.31;12926794;23;21239;-61
2023/06/16 19:03:01;;;;;;;;;;;;;;;23.74;38.62;101586.88;12924113;23;20392;-71
2023/06/16 19:08:04;;;;;;;;;;;;;;;23.87;37.07;101581.19;12924530;23;20218;-60
2023/06/16 19:13:07;;;;;;;;;;;;;;;23.79;36.98;101585.56;12928302;23;19920;-61
2023/06/16 19:18:10;;;;;;;;;;;;;;;23.40;37.63;101594.78;12927899;23;20259;-59
2023/06/16 19:23:13;;;;;;;;;;;;;;;23.42;37.81;101589.28;12928491;23;19920;-60
2023/06/16 19:28:17;;;;;;;;;;;;;;;23.27;38.36;101594.34;12927909;23;19924;-60
2023/06/16 19:33:19;;;;;;;;;;;;;;;23.02;39.06;101593.22;12927941;23;19926;-60
2023/06/16 19:38:21;;;;;;;;;;;;;;;22.81;40.79;101595.16;12928091;22;19919;-60
2023/06/16 19:43:25;;;;;;;;;;;;;;;22.47;41.51;101589.56;12927623;23;20368;-61
2023/06/16 19:48:27;;;;;;;;;;;;;;;22.12;43.10;101604.38;12927389;22;19920;-60
2023/06/16 19:53:29;;;;;;;;;;;;;;;21.97;42.87;101600.47;12927053;23;20704;-60
2023/06/16 19:58:32;;;;;;;;;;;;;;;21.48;44.65;101606.69;12927176;23;20280;-60
2023/06/16 20:03:35;;;;;;;;;;;;;;;21.47;44.68;101614.84;12927785;23;19951;-59
2023/06/16 20:08:38;;;;;;;;;;;;;;;20.96;45.76;101617.53;12927832;23;19923;-59
2023/06/16 20:13:42;;;;;;;;;;;;;;;20.85;46.34;101622.97;12926674;23;20002;-59
2023/06/16 20:18:44;;;;;;;;;;;;;;;20.57;46.79;101622.66;12927080;22;19987;-59
2023/06/16 20:23:47;;;;;;;;;;;;;;;20.30;47.40;101636.53;12926387;23;19930;-61
2023/06/16 20:28:49;;;;;;;;;;;;;;;20.01;48.56;101644.34;12926487;23;20292;-61
2023/06/16 20:33:52;;;;;;;;;;;;;;;19.92;48.57;101645.97;12926314;23;19926;-61
2023/06/16 20:38:58;;;;;;;;;;;;;;;19.84;48.85;101643.94;12926480;23;19958;-61
2023/06/16 20:44:01;;;;;;;;;;;;;;;19.74;49.88;101644.81;12925672;23;20006;-61
2023/06/16 20:49:03;;;;;;;;;;;;;;;19.43;50.67;101639.34;12925547;23;19998;-61
2023/06/16 20:54:05;;;;;;;;;;;;;;;19.27;50.94;101632.63;12925752;23;20323;-62
2023/06/16 20:59:07;;;;;;;;;;;;;;;19.16;51.23;101637.13;12926132;23;19919;-61
2023/06/16 21:04:15;;;;;;;;;;;;;;;19.26;51.08;101630.94;12925552;23;19991;-62
2023/06/16 21:09:17;;;;;;;;;;;;;;;18.81;52.62;101627.47;12925671;22;19919;-62
2023/06/16 21:14:19;;;;;;;;;;;;;;;18.85;52.60;101621.00;12925114;23;20310;-62
2023/06/16 21:19:22;;;;;;;;;;;;;;;18.52;53.33;101612.88;12924946;22;19919;-62
2023/06/16 21:24:32;;;;;;;;;;;;;;;18.63;53.17;101617.38;12925935;23;19939;-62
2023/06/16 21:29:34;;;;;;;;;;;;;;;18.47;53.28;101615.06;12926113;23;19938;-63
2023/06/16 21:34:36;;;;;;;;;;;;;;;18.41;53.68;101607.59;12926174;23;19986;-62
2023/06/16 21:44:59;;;;;;;;;;;;;;;18.00;54.87;101612.47;12925645;23;19950;-62
2023/06/16 21:50:03;;;;;;;;;;;;;;;17.99;54.62;101616.06;12925902;23;19920;-62
2023/06/16 21:55:05;;;;;;;;;;;;;;;17.92;54.67;101611.34;12925314;23;19924;-63
2023/06/16 22:00:08;;;;;;;;;;;;;;;17.69;56.11;101608.59;12928494;23;19927;-62
2023/06/16 22:05:12;;;;;;;;;;;;;;;17.75;56.54;101599.34;12929738;23;19920;-62
2023/06/16 22:10:14;;;;;;;;;;;;;;;17.55;56.57;101592.88;12928790;23;19985;-63
2023/06/16 22:15:16;;;;;;;;;;;;;;;17.57;56.52;101589.19;12929137;23;20347;-63
2023/06/16 22:20:19;;;;;;;;;;;;;;;17.38;57.32;101595.00;12928461;23;19958;-63
2023/06/16 22:25:23;;;;;;;;;;;;;;;17.41;57.68;101597.41;12929706;23;19927;-62
2023/06/16 22:30:27;;;;;;;;;;;;;;;17.26;58.92;101598.53;12929834;22;19924;-62
2023/06/16 22:35:30;;;;;;;;;;;;;;;17.20;58.69;101593.69;12929118;23;19975;-63
2023/06/16 22:40:32;;;;;;;;;;;;;;;16.97;59.40;101588.25;12928143;23;19999;-63
2023/06/16 22:45:34;;;;;;;;;;;;;;;17.05;59.46;101588.56;12928584;23;19926;-63
2023/06/16 22:50:36;;;;;;;;;;;;;;;17.02;59.47;101583.47;12929191;23;19987;-63
2023/06/16 22:55:38;;;;;;;;;;;;;;;16.81;60.04;101591.13;12927946;23;19955;-62
2023/06/16 23:00:41;;;;;;;;;;;;;;;16.76;60.36;101584.47;12928557;23;19920;-62
2023/06/16 23:05:43;;;;;;;;;;;;;;;16.77;60.50;101586.16;12929277;23;19987;-63
2023/06/16 23:10:45;;;;;;;;;;;;;;;16.57;61.88;101587.56;12928217;23;19990;-63
2023/06/16 23:15:47;;;;;;;;;;;;;;;16.53;62.40;101582.50;12927640;23;20284;-62
2023/06/16 23:20:50;;;;;;;;;;;;;;;16.55;62.77;101582.38;12928136;23;19976;-62
2023/06/16 23:25:54;;;;;;;;;;;;;;;16.63;62.46;101579.22;12928571;23;19939;-62
2023/06/16 23:30:58;;;;;;;;;;;;;;;16.39;63.14;101573.84;12927906;23;19920;-62
2023/06/16 23:36:04;;;;;;;;;;;;;;;16.29;63.18;101576.25;12928390;23;19927;-62
2023/06/16 23:41:08;;;;;;;;;;;;;;;16.33;63.25;101575.13;12927706;23;19998;-62
2023/06/16 23:46:13;;;;;;;;;;;;;;;16.26;64.17;101572.06;12928197;23;19986;-62
2023/06/16 23:51:15;;;;;;;;;;;;;;;16.06;64.68;101577.88;12927992;23;19927;-62
2023/06/16 23:56:18;;;;;;;;;;;;;;;16.13;64.59;101576.50;12926381;23;19943;-62
